OINR 
Ramsar Airport
Iran 
ICAOIATAStatus
OINRRZROperational
LatitudeLongitude
36° 54' 35" N50° 40' 46" E
36.90990150.679600
Local Time (DST+5)UTC (GMT+4)
04-23-2014 02:59 pm04-23-2014 10:29
Sunrise-SunsetLocalUTC
Begin Civil Twilight05:53 am01:23
Sunrise06:21 am01:51
Sunset07:50 pm15:20
End Civil Twilight08:17 pm15:47

Current Weather

METARObservedFlight Conditions

OINR 231000Z 04004KT 9999 BKN017 SCT180 19/14 Q1010

Wed, Apr 23, 2014 @ 10:00 UTC(Z)

(29 Minutes ago)

MVFR

(Marginal Visual Flight Rules)

WindVisibilityCloudsConditions
040° at 4 knots (7 kph)
10 km or more
  • Broken at 1,700' AGL
  • Scattered at 18,000' AGL
  • No significant weather
TemperaturesReadingsPrecipitation
Current Temp19°C (66°F)
Dewpoint14°C (57°F)
Humidity73%
Altimeter29.82"Hg
Sea Level Pressure1010mb
None Recorded

Additional weather within a 92.6km radius of OINR

Location METAR
OINN

75km E (111°)

29 minutes ago
VFR VFR    MVFR MVFR    IFR IFR    LIFR LIFR    Unknown Unknown

Previous 24 hour Weather Graphs

  Loading...

CheckWX.com is intended as a tool to help pilots better visualize weather data.   It is not intended as a substitute for an official weather briefing obtained from a Flight Service Station.
CheckWX.com does not meet the FAA requirements for an official pre-flight weather briefing.   Therefore, it's important that pilots still call and obtain an official FSS pre-flight weather briefing.